sensor_id;sensor_type;location;lat;lon;timestamp;pressure;altitude;pressure_sealevel;temperature;humidity
62632;BME280;48703;51.248;-0.546;2023-09-08T00:01:14;100988;;;20.67;81.70
62632;BME280;48703;51.248;-0.546;2023-09-08T00:04:16;100994;;;20.58;82.36
62632;BME280;48703;51.248;-0.546;2023-09-08T00:07:18;100994;;;20.54;82.35
62632;BME280;48703;51.248;-0.546;2023-09-08T00:10:20;100998;;;20.51;81.88
62632;BME280;48703;51.248;-0.546;2023-09-08T00:13:23;100998;;;20.43;82.82
62632;BME280;48703;51.248;-0.546;2023-09-08T00:16:25;100990;;;20.44;82.35
62632;BME280;48703;51.248;-0.546;2023-09-08T00:19:27;100993;;;20.45;82.35
62632;BME280;48703;51.248;-0.546;2023-09-08T00:22:29;100990;;;20.41;82.72
62632;BME280;48703;51.248;-0.546;2023-09-08T00:25:31;100987;;;20.41;82.77
62632;BME280;48703;51.248;-0.546;2023-09-08T00:28:33;100990;;;20.38;82.81
62632;BME280;48703;51.248;-0.546;2023-09-08T00:31:35;100987;;;20.36;82.96
62632;BME280;48703;51.248;-0.546;2023-09-08T00:34:37;100985;;;20.34;83.03
62632;BME280;48703;51.248;-0.546;2023-09-08T00:37:39;100982;;;20.28;83.77
62632;BME280;48703;51.248;-0.546;2023-09-08T00:40:41;100983;;;20.20;83.80
62632;BME280;48703;51.248;-0.546;2023-09-08T00:43:43;100983;;;20.16;84.59
62632;BME280;48703;51.248;-0.546;2023-09-08T00:46:45;100983;;;20.17;83.47
62632;BME280;48703;51.248;-0.546;2023-09-08T00:49:47;100985;;;20.15;83.67
62632;BME280;48703;51.248;-0.546;2023-09-08T00:52:49;100985;;;20.11;83.42
62632;BME280;48703;51.248;-0.546;2023-09-08T00:55:52;100989;;;20.08;83.54
62632;BME280;48703;51.248;-0.546;2023-09-08T00:58:54;100989;;;20.13;82.04
62632;BME280;48703;51.248;-0.546;2023-09-08T01:01:56;100986;;;20.10;81.80
62632;BME280;48703;51.248;-0.546;2023-09-08T01:04:58;100985;;;20.11;81.61
62632;BME280;48703;51.248;-0.546;2023-09-08T01:08:00;100986;;;20.13;82.61
62632;BME280;48703;51.248;-0.546;2023-09-08T01:11:02;100981;;;20.03;82.28
62632;BME280;48703;51.248;-0.546;2023-09-08T01:14:04;100976;;;20.01;82.67
62632;BME280;48703;51.248;-0.546;2023-09-08T01:17:06;100978;;;19.98;82.97
62632;BME280;48703;51.248;-0.546;2023-09-08T01:20:10;100979;;;19.97;83.09
62632;BME280;48703;51.248;-0.546;2023-09-08T01:23:11;100986;;;19.94;83.42
62632;BME280;48703;51.248;-0.546;2023-09-08T01:26:13;100988;;;19.91;83.20
62632;BME280;48703;51.248;-0.546;2023-09-08T01:29:14;100990;;;19.90;83.26
62632;BME280;48703;51.248;-0.546;2023-09-08T01:32:16;100987;;;19.82;84.02
62632;BME280;48703;51.248;-0.546;2023-09-08T01:35:18;100986;;;19.85;83.42
62632;BME280;48703;51.248;-0.546;2023-09-08T01:38:21;100985;;;19.79;84.08
62632;BME280;48703;51.248;-0.546;2023-09-08T01:41:22;100986;;;19.75;84.12
62632;BME280;48703;51.248;-0.546;2023-09-08T01:44:24;100986;;;19.71;84.78
62632;BME280;48703;51.248;-0.546;2023-09-08T01:47:28;100980;;;19.75;84.23
62632;BME280;48703;51.248;-0.546;2023-09-08T01:50:29;100980;;;19.73;84.76
62632;BME280;48703;51.248;-0.546;2023-09-08T01:53:31;100975;;;19.67;84.75
62632;BME280;48703;51.248;-0.546;2023-09-08T01:56:33;100973;;;19.64;85.13
62632;BME280;48703;51.248;-0.546;2023-09-08T01:59:35;100980;;;19.57;85.71
62632;BME280;48703;51.248;-0.546;2023-09-08T02:02:37;100981;;;19.49;85.99
62632;BME280;48703;51.248;-0.546;2023-09-08T02:05:39;100983;;;19.45;86.06
62632;BME280;48703;51.248;-0.546;2023-09-08T02:08:41;100982;;;19.49;85.78
62632;BME280;48703;51.248;-0.546;2023-09-08T02:11:43;100982;;;19.50;85.68
62632;BME280;48703;51.248;-0.546;2023-09-08T02:14:45;100985;;;19.44;86.25
62632;BME280;48703;51.248;-0.546;2023-09-08T02:17:48;100984;;;19.44;86.12
62632;BME280;48703;51.248;-0.546;2023-09-08T02:20:49;100981;;;19.44;86.05
62632;BME280;48703;51.248;-0.546;2023-09-08T02:23:51;100976;;;19.44;86.32
62632;BME280;48703;51.248;-0.546;2023-09-08T02:26:53;100975;;;19.41;86.64
62632;BME280;48703;51.248;-0.546;2023-09-08T02:29:55;100975;;;19.35;86.25
62632;BME280;48703;51.248;-0.546;2023-09-08T02:32:57;100971;;;19.31;86.62
62632;BME280;48703;51.248;-0.546;2023-09-08T02:36:01;100973;;;19.27;86.98
62632;BME280;48703;51.248;-0.546;2023-09-08T02:39:02;100976;;;19.26;86.70
62632;BME280;48703;51.248;-0.546;2023-09-08T02:42:04;100974;;;19.27;86.61
62632;BME280;48703;51.248;-0.546;2023-09-08T02:45:06;100969;;;19.29;86.45
62632;BME280;48703;51.248;-0.546;2023-09-08T02:48:08;100973;;;19.26;87.09
62632;BME280;48703;51.248;-0.546;2023-09-08T02:51:10;100975;;;19.20;86.57
62632;BME280;48703;51.248;-0.546;2023-09-08T02:54:12;100973;;;19.16;87.44
62632;BME280;48703;51.248;-0.546;2023-09-08T02:57:14;100970;;;19.17;87.26
62632;BME280;48703;51.248;-0.546;2023-09-08T03:00:16;100971;;;19.14;86.99
62632;BME280;48703;51.248;-0.546;2023-09-08T03:03:18;100966;;;19.19;86.76
62632;BME280;48703;51.248;-0.546;2023-09-08T03:06:20;100962;;;19.10;87.55
62632;BME280;48703;51.248;-0.546;2023-09-08T03:09:22;100968;;;19.01;87.89
62632;BME280;48703;51.248;-0.546;2023-09-08T03:12:24;100975;;;18.93;88.36
62632;BME280;48703;51.248;-0.546;2023-09-08T03:15:26;100975;;;18.93;88.47
62632;BME280;48703;51.248;-0.546;2023-09-08T03:18:28;100969;;;18.93;88.91
62632;BME280;48703;51.248;-0.546;2023-09-08T03:21:30;100972;;;18.93;88.11
62632;BME280;48703;51.248;-0.546;2023-09-08T03:24:33;100968;;;18.96;88.14
62632;BME280;48703;51.248;-0.546;2023-09-08T03:27:35;100965;;;18.97;88.31
62632;BME280;48703;51.248;-0.546;2023-09-08T03:30:37;100965;;;18.96;87.81
62632;BME280;48703;51.248;-0.546;2023-09-08T03:33:39;100964;;;18.95;87.84
62632;BME280;48703;51.248;-0.546;2023-09-08T03:36:41;100963;;;18.93;88.81
62632;BME280;48703;51.248;-0.546;2023-09-08T03:39:43;100963;;;18.87;88.52
62632;BME280;48703;51.248;-0.546;2023-09-08T03:42:45;100958;;;18.82;89.24
62632;BME280;48703;51.248;-0.546;2023-09-08T03:45:47;100954;;;18.77;89.45
62632;BME280;48703;51.248;-0.546;2023-09-08T03:48:49;100962;;;18.75;88.94
62632;BME280;48703;51.248;-0.546;2023-09-08T03:51:51;100963;;;18.73;88.80
62632;BME280;48703;51.248;-0.546;2023-09-08T03:54:53;100963;;;18.74;88.91
62632;BME280;48703;51.248;-0.546;2023-09-08T03:57:55;100966;;;18.77;88.41
62632;BME280;48703;51.248;-0.546;2023-09-08T04:00:57;100969;;;18.72;88.97
62632;BME280;48703;51.248;-0.546;2023-09-08T04:03:59;100970;;;18.72;88.80
62632;BME280;48703;51.248;-0.546;2023-09-08T04:07:01;100967;;;18.68;88.83
62632;BME280;48703;51.248;-0.546;2023-09-08T04:10:04;100964;;;18.68;88.51
62632;BME280;48703;51.248;-0.546;2023-09-08T04:13:05;100963;;;18.68;88.43
62632;BME280;48703;51.248;-0.546;2023-09-08T04:16:08;100959;;;18.67;88.47
62632;BME280;48703;51.248;-0.546;2023-09-08T04:19:10;100958;;;18.67;88.13
62632;BME280;48703;51.248;-0.546;2023-09-08T04:22:12;100961;;;18.63;88.13
62632;BME280;48703;51.248;-0.546;2023-09-08T04:25:14;100964;;;18.66;88.27
62632;BME280;48703;51.248;-0.546;2023-09-08T04:28:16;100966;;;18.63;88.00
62632;BME280;48703;51.248;-0.546;2023-09-08T04:31:18;100967;;;18.61;88.63
62632;BME280;48703;51.248;-0.546;2023-09-08T04:34:20;100974;;;18.58;88.94
62632;BME280;48703;51.248;-0.546;2023-09-08T04:37:22;100978;;;18.60;88.79
62632;BME280;48703;51.248;-0.546;2023-09-08T04:40:24;100979;;;18.63;88.65
62632;BME280;48703;51.248;-0.546;2023-09-08T04:43:26;100982;;;18.62;88.66
62632;BME280;48703;51.248;-0.546;2023-09-08T04:46:28;100988;;;18.60;88.99
62632;BME280;48703;51.248;-0.546;2023-09-08T04:49:30;100990;;;18.57;89.06
62632;BME280;48703;51.248;-0.546;2023-09-08T04:52:32;100988;;;18.58;89.03
62632;BME280;48703;51.248;-0.546;2023-09-08T04:55:34;100988;;;18.61;88.53
62632;BME280;48703;51.248;-0.546;2023-09-08T04:58:36;100989;;;18.64;88.47
62632;BME280;48703;51.248;-0.546;2023-09-08T05:01:38;100986;;;18.61;88.38
62632;BME280;48703;51.248;-0.546;2023-09-08T05:04:41;100985;;;18.58;88.35
62632;BME280;48703;51.248;-0.546;2023-09-08T05:07:43;100984;;;18.59;88.06
62632;BME280;48703;51.248;-0.546;2023-09-08T05:10:45;100982;;;18.61;87.83
62632;BME280;48703;51.248;-0.546;2023-09-08T05:13:47;100984;;;18.61;87.84
62632;BME280;48703;51.248;-0.546;2023-09-08T05:16:49;100986;;;18.62;87.94
62632;BME280;48703;51.248;-0.546;2023-09-08T05:19:51;100989;;;18.61;88.07
62632;BME280;48703;51.248;-0.546;2023-09-08T05:22:53;100992;;;18.56;88.36
62632;BME280;48703;51.248;-0.546;2023-09-08T05:25:55;100992;;;18.53;88.14
62632;BME280;48703;51.248;-0.546;2023-09-08T05:28:57;100988;;;18.50;88.31
62632;BME280;48703;51.248;-0.546;2023-09-08T05:31:59;100987;;;18.45;88.36
62632;BME280;48703;51.248;-0.546;2023-09-08T05:35:01;100991;;;18.42;88.67
62632;BME280;48703;51.248;-0.546;2023-09-08T05:38:03;100994;;;18.38;89.46
62632;BME280;48703;51.248;-0.546;2023-09-08T05:41:05;100994;;;18.36;89.12
62632;BME280;48703;51.248;-0.546;2023-09-08T05:44:07;100997;;;18.37;88.90
62632;BME280;48703;51.248;-0.546;2023-09-08T05:47:09;101003;;;18.42;88.92
62632;BME280;48703;51.248;-0.546;2023-09-08T05:50:11;101007;;;18.41;88.82
62632;BME280;48703;51.248;-0.546;2023-09-08T05:53:14;101007;;;18.38;88.71
62632;BME280;48703;51.248;-0.546;2023-09-08T05:56:17;101006;;;18.33;89.37
62632;BME280;48703;51.248;-0.546;2023-09-08T05:59:18;101007;;;18.30;89.79
62632;BME280;48703;51.248;-0.546;2023-09-08T06:02:20;101012;;;18.29;89.60
62632;BME280;48703;51.248;-0.546;2023-09-08T06:05:22;101013;;;18.32;89.53
62632;BME280;48703;51.248;-0.546;2023-09-08T06:08:24;101011;;;18.32;88.99
62632;BME280;48703;51.248;-0.546;2023-09-08T06:11:26;101013;;;18.29;89.04
62632;BME280;48703;51.248;-0.546;2023-09-08T06:14:28;101017;;;18.29;89.05
62632;BME280;48703;51.248;-0.546;2023-09-08T06:17:30;101019;;;18.27;89.32
62632;BME280;48703;51.248;-0.546;2023-09-08T06:20:32;101018;;;18.24;90.27
62632;BME280;48703;51.248;-0.546;2023-09-08T06:23:34;101015;;;18.22;90.53
62632;BME280;48703;51.248;-0.546;2023-09-08T06:26:37;101016;;;18.23;90.02
62632;BME280;48703;51.248;-0.546;2023-09-08T06:29:38;101021;;;18.26;89.71
62632;BME280;48703;51.248;-0.546;2023-09-08T06:32:40;101026;;;18.28;89.70
62632;BME280;48703;51.248;-0.546;2023-09-08T06:35:42;101027;;;18.28;90.62
62632;BME280;48703;51.248;-0.546;2023-09-08T06:38:44;101027;;;18.29;91.03
62632;BME280;48703;51.248;-0.546;2023-09-08T06:41:46;101030;;;18.32;90.54
62632;BME280;48703;51.248;-0.546;2023-09-08T06:44:48;101031;;;18.33;90.63
62632;BME280;48703;51.248;-0.546;2023-09-08T06:47:51;101031;;;18.34;90.48
62632;BME280;48703;51.248;-0.546;2023-09-08T06:50:53;101032;;;18.34;91.25
62632;BME280;48703;51.248;-0.546;2023-09-08T06:53:55;101033;;;18.36;90.84
62632;BME280;48703;51.248;-0.546;2023-09-08T06:56:57;101034;;;18.42;90.09
62632;BME280;48703;51.248;-0.546;2023-09-08T06:59:59;101032;;;18.48;90.14
62632;BME280;48703;51.248;-0.546;2023-09-08T07:03:01;101033;;;18.54;90.70
62632;BME280;48703;51.248;-0.546;2023-09-08T07:06:03;101035;;;18.60;91.03
62632;BME280;48703;51.248;-0.546;2023-09-08T07:09:05;101037;;;18.67;91.29
62632;BME280;48703;51.248;-0.546;2023-09-08T07:12:07;101037;;;18.74;91.43
62632;BME280;48703;51.248;-0.546;2023-09-08T07:15:09;101037;;;18.83;91.00
62632;BME280;48703;51.248;-0.546;2023-09-08T07:18:11;101041;;;18.93;90.16
62632;BME280;48703;51.248;-0.546;2023-09-08T07:21:13;101045;;;19.05;88.37
62632;BME280;48703;51.248;-0.546;2023-09-08T07:24:15;101048;;;19.17;87.99
62632;BME280;48703;51.248;-0.546;2023-09-08T07:27:17;101048;;;19.29;87.97
62632;BME280;48703;51.248;-0.546;2023-09-08T07:30:19;101046;;;19.41;87.94
62632;BME280;48703;51.248;-0.546;2023-09-08T07:33:21;101043;;;19.52;88.36
62632;BME280;48703;51.248;-0.546;2023-09-08T07:36:23;101042;;;19.60;87.64
62632;BME280;48703;51.248;-0.546;2023-09-08T07:39:26;101043;;;19.69;87.06
62632;BME280;48703;51.248;-0.546;2023-09-08T07:42:28;101041;;;19.81;86.59
62632;BME280;48703;51.248;-0.546;2023-09-08T07:45:30;101041;;;19.89;86.13
62632;BME280;48703;51.248;-0.546;2023-09-08T07:48:32;101042;;;19.97;87.24
62632;BME280;48703;51.248;-0.546;2023-09-08T07:51:34;101041;;;20.03;86.31
62632;BME280;48703;51.248;-0.546;2023-09-08T07:54:36;101039;;;20.09;86.50
62632;BME280;48703;51.248;-0.546;2023-09-08T07:57:38;101039;;;20.14;85.54
62632;BME280;48703;51.248;-0.546;2023-09-08T08:00:40;101042;;;20.20;84.73
62632;BME280;48703;51.248;-0.546;2023-09-08T08:03:42;101043;;;20.26;84.63
62632;BME280;48703;51.248;-0.546;2023-09-08T08:06:44;101041;;;20.33;84.52
62632;BME280;48703;51.248;-0.546;2023-09-08T08:09:46;101040;;;20.42;84.19
62632;BME280;48703;51.248;-0.546;2023-09-08T08:12:48;101043;;;20.52;84.26
62632;BME280;48703;51.248;-0.546;2023-09-08T08:15:50;101048;;;20.62;83.42
62632;BME280;48703;51.248;-0.546;2023-09-08T08:18:52;101053;;;20.75;81.79
62632;BME280;48703;51.248;-0.546;2023-09-08T08:21:54;101054;;;20.89;80.81
62632;BME280;48703;51.248;-0.546;2023-09-08T08:24:56;101053;;;21.00;79.28
62632;BME280;48703;51.248;-0.546;2023-09-08T08:27:59;101052;;;21.12;79.28
62632;BME280;48703;51.248;-0.546;2023-09-08T08:31:01;101052;;;21.21;80.01
62632;BME280;48703;51.248;-0.546;2023-09-08T08:34:03;101054;;;21.28;79.28
62632;BME280;48703;51.248;-0.546;2023-09-08T08:37:05;101057;;;21.35;78.86
62632;BME280;48703;51.248;-0.546;2023-09-08T08:40:08;101061;;;21.42;79.83
62632;BME280;48703;51.248;-0.546;2023-09-08T08:43:09;101060;;;21.48;80.23
62632;BME280;48703;51.248;-0.546;2023-09-08T08:46:11;101057;;;21.55;79.82
62632;BME280;48703;51.248;-0.546;2023-09-08T08:49:13;101061;;;21.62;77.06
62632;BME280;48703;51.248;-0.546;2023-09-08T08:52:15;101065;;;21.70;77.46
62632;BME280;48703;51.248;-0.546;2023-09-08T08:55:17;101062;;;21.73;77.42
62632;BME280;48703;51.248;-0.546;2023-09-08T08:58:19;101062;;;21.78;76.73
62632;BME280;48703;51.248;-0.546;2023-09-08T09:01:21;101065;;;21.82;76.28
62632;BME280;48703;51.248;-0.546;2023-09-08T09:04:23;101070;;;21.88;75.86
62632;BME280;48703;51.248;-0.546;2023-09-08T09:07:25;101076;;;21.96;74.17
62632;BME280;48703;51.248;-0.546;2023-09-08T09:10:27;101079;;;22.06;73.34
62632;BME280;48703;51.248;-0.546;2023-09-08T09:13:29;101076;;;22.15;72.86
62632;BME280;48703;51.248;-0.546;2023-09-08T09:16:34;101071;;;22.22;73.17
62632;BME280;48703;51.248;-0.546;2023-09-08T09:19:33;101075;;;22.28;73.85
62632;BME280;48703;51.248;-0.546;2023-09-08T09:22:36;101082;;;22.34;72.66
62632;BME280;48703;51.248;-0.546;2023-09-08T09:25:38;101082;;;22.40;74.03
62632;BME280;48703;51.248;-0.546;2023-09-08T09:28:43;101082;;;22.44;72.62
62632;BME280;48703;51.248;-0.546;2023-09-08T09:31:50;101084;;;22.52;73.19
62632;BME280;48703;51.248;-0.546;2023-09-08T09:34:47;101084;;;22.58;72.18
62632;BME280;48703;51.248;-0.546;2023-09-08T09:37:46;101088;;;22.66;71.60
62632;BME280;48703;51.248;-0.546;2023-09-08T09:40:48;101089;;;22.72;71.66
62632;BME280;48703;51.248;-0.546;2023-09-08T09:43:50;101088;;;22.78;72.06
62632;BME280;48703;51.248;-0.546;2023-09-08T09:46:52;101093;;;22.84;71.00
62632;BME280;48703;51.248;-0.546;2023-09-08T09:49:54;101093;;;22.92;70.61
62632;BME280;48703;51.248;-0.546;2023-09-08T09:52:57;101093;;;22.98;70.27
62632;BME280;48703;51.248;-0.546;2023-09-08T09:55:58;101090;;;23.06;70.62
62632;BME280;48703;51.248;-0.546;2023-09-08T09:59:01;101093;;;23.15;72.06
62632;BME280;48703;51.248;-0.546;2023-09-08T10:02:02;101095;;;23.21;68.29
62632;BME280;48703;51.248;-0.546;2023-09-08T10:05:10;101093;;;23.27;63.76
62632;BME280;48703;51.248;-0.546;2023-09-08T10:08:06;101094;;;23.35;66.96
62632;BME280;48703;51.248;-0.546;2023-09-08T10:11:08;101093;;;23.43;67.33
62632;BME280;48703;51.248;-0.546;2023-09-08T10:14:11;101093;;;23.50;65.61
62632;BME280;48703;51.248;-0.546;2023-09-08T10:17:15;101093;;;23.59;64.02
62632;BME280;48703;51.248;-0.546;2023-09-08T10:20:15;101095;;;23.68;65.83
62632;BME280;48703;51.248;-0.546;2023-09-08T10:23:23;101093;;;23.73;64.06
62632;BME280;48703;51.248;-0.546;2023-09-08T10:26:19;101091;;;23.79;60.32
62632;BME280;48703;51.248;-0.546;2023-09-08T10:29:21;101092;;;23.86;60.68
62632;BME280;48703;51.248;-0.546;2023-09-08T10:32:23;101093;;;23.90;60.03
62632;BME280;48703;51.248;-0.546;2023-09-08T10:35:25;101093;;;23.95;57.99
62632;BME280;48703;51.248;-0.546;2023-09-08T10:38:27;101092;;;24.05;59.15
62632;BME280;48703;51.248;-0.546;2023-09-08T10:41:29;101094;;;24.12;58.38
62632;BME280;48703;51.248;-0.546;2023-09-08T10:44:31;101097;;;24.19;58.02
62632;BME280;48703;51.248;-0.546;2023-09-08T10:50:35;101094;;;24.35;55.48
62632;BME280;48703;51.248;-0.546;2023-09-08T10:53:37;101095;;;24.42;57.33
62632;BME280;48703;51.248;-0.546;2023-09-08T10:56:47;101094;;;24.47;58.72
62632;BME280;48703;51.248;-0.546;2023-09-08T10:59:44;101090;;;24.53;55.79
62632;BME280;48703;51.248;-0.546;2023-09-08T11:02:47;101089;;;24.60;55.23
62632;BME280;48703;51.248;-0.546;2023-09-08T11:05:45;101086;;;24.67;56.12
62632;BME280;48703;51.248;-0.546;2023-09-08T11:08:48;101085;;;24.73;56.59
62632;BME280;48703;51.248;-0.546;2023-09-08T11:11:50;101084;;;24.79;53.60
62632;BME280;48703;51.248;-0.546;2023-09-08T11:14:52;101083;;;24.87;54.38
62632;BME280;48703;51.248;-0.546;2023-09-08T11:17:54;101083;;;24.96;53.94
62632;BME280;48703;51.248;-0.546;2023-09-08T11:20:56;101079;;;25.02;54.45
62632;BME280;48703;51.248;-0.546;2023-09-08T11:23:58;101081;;;25.08;55.65
62632;BME280;48703;51.248;-0.546;2023-09-08T11:27:00;101084;;;25.16;55.86
62632;BME280;48703;51.248;-0.546;2023-09-08T11:30:02;101085;;;25.22;55.39
62632;BME280;48703;51.248;-0.546;2023-09-08T11:33:04;101086;;;25.31;56.42
62632;BME280;48703;51.248;-0.546;2023-09-08T11:36:11;101085;;;25.38;57.07
62632;BME280;48703;51.248;-0.546;2023-09-08T11:39:09;101087;;;25.44;58.23
62632;BME280;48703;51.248;-0.546;2023-09-08T11:42:11;101089;;;25.48;59.03
62632;BME280;48703;51.248;-0.546;2023-09-08T11:45:13;101091;;;25.53;58.90
62632;BME280;48703;51.248;-0.546;2023-09-08T11:48:15;101093;;;25.56;59.37
62632;BME280;48703;51.248;-0.546;2023-09-08T11:51:16;101091;;;25.61;58.73
62632;BME280;48703;51.248;-0.546;2023-09-08T11:54:19;101090;;;25.66;59.65
62632;BME280;48703;51.248;-0.546;2023-09-08T11:57:21;101091;;;25.71;59.33
62632;BME280;48703;51.248;-0.546;2023-09-08T12:00:23;101092;;;25.76;59.18
62632;BME280;48703;51.248;-0.546;2023-09-08T12:03:25;101091;;;25.81;59.45
62632;BME280;48703;51.248;-0.546;2023-09-08T12:06:27;101090;;;25.86;59.36
62632;BME280;48703;51.248;-0.546;2023-09-08T12:09:29;101088;;;25.94;58.69
62632;BME280;48703;51.248;-0.546;2023-09-08T12:12:31;101088;;;26.02;58.86
62632;BME280;48703;51.248;-0.546;2023-09-08T12:15:33;101087;;;26.09;59.58
62632;BME280;48703;51.248;-0.546;2023-09-08T12:18:37;101083;;;26.15;58.68
62632;BME280;48703;51.248;-0.546;2023-09-08T12:21:53;101078;;;26.21;58.96
62632;BME280;48703;51.248;-0.546;2023-09-08T12:24:47;101071;;;26.27;58.89
62632;BME280;48703;51.248;-0.546;2023-09-08T12:27:41;101069;;;26.31;58.21
62632;BME280;48703;51.248;-0.546;2023-09-08T12:30:43;101070;;;26.33;57.39
62632;BME280;48703;51.248;-0.546;2023-09-08T12:33:45;101069;;;26.37;57.58
62632;BME280;48703;51.248;-0.546;2023-09-08T12:36:47;101067;;;26.40;58.89
62632;BME280;48703;51.248;-0.546;2023-09-08T12:39:50;101067;;;26.42;57.51
62632;BME280;48703;51.248;-0.546;2023-09-08T12:42:52;101068;;;26.42;57.19
62632;BME280;48703;51.248;-0.546;2023-09-08T12:45:54;101065;;;26.45;57.93
62632;BME280;48703;51.248;-0.546;2023-09-08T12:48:56;101067;;;26.49;58.68
62632;BME280;48703;51.248;-0.546;2023-09-08T12:51:58;101065;;;26.53;57.91
62632;BME280;48703;51.248;-0.546;2023-09-08T12:55:00;101064;;;26.58;56.93
62632;BME280;48703;51.248;-0.546;2023-09-08T12:58:02;101059;;;26.65;58.35
62632;BME280;48703;51.248;-0.546;2023-09-08T13:01:04;101053;;;26.73;58.46
62632;BME280;48703;51.248;-0.546;2023-09-08T13:04:06;101055;;;26.80;57.81
62632;BME280;48703;51.248;-0.546;2023-09-08T13:07:08;101055;;;26.85;57.18
62632;BME280;48703;51.248;-0.546;2023-09-08T13:10:10;101051;;;26.85;56.23
62632;BME280;48703;51.248;-0.546;2023-09-08T13:13:12;101048;;;26.81;55.42
62632;BME280;48703;51.248;-0.546;2023-09-08T13:16:14;101047;;;26.80;55.49
62632;BME280;48703;51.248;-0.546;2023-09-08T13:19:16;101043;;;26.81;55.47
62632;BME280;48703;51.248;-0.546;2023-09-08T13:22:18;101040;;;26.78;54.74
62632;BME280;48703;51.248;-0.546;2023-09-08T13:25:20;101038;;;26.80;55.99
62632;BME280;48703;51.248;-0.546;2023-09-08T13:28:22;101033;;;26.85;55.89
62632;BME280;48703;51.248;-0.546;2023-09-08T13:31:24;101033;;;26.93;55.35
62632;BME280;48703;51.248;-0.546;2023-09-08T13:34:26;101031;;;26.99;54.30
62632;BME280;48703;51.248;-0.546;2023-09-08T13:37:28;101024;;;27.03;55.51
62632;BME280;48703;51.248;-0.546;2023-09-08T13:40:31;101020;;;27.07;54.36
62632;BME280;48703;51.248;-0.546;2023-09-08T13:43:33;101021;;;27.12;54.36
62632;BME280;48703;51.248;-0.546;2023-09-08T13:46:35;101019;;;27.14;51.89
62632;BME280;48703;51.248;-0.546;2023-09-08T13:49:37;101016;;;27.15;51.30
62632;BME280;48703;51.248;-0.546;2023-09-08T13:52:39;101015;;;27.20;52.75
62632;BME280;48703;51.248;-0.546;2023-09-08T13:55:41;101013;;;27.23;52.63
62632;BME280;48703;51.248;-0.546;2023-09-08T13:58:43;101014;;;27.27;51.31
62632;BME280;48703;51.248;-0.546;2023-09-08T14:01:45;101019;;;27.27;48.23
62632;BME280;48703;51.248;-0.546;2023-09-08T14:04:47;101017;;;27.28;51.28
62632;BME280;48703;51.248;-0.546;2023-09-08T14:07:49;101014;;;27.30;50.50
62632;BME280;48703;51.248;-0.546;2023-09-08T14:10:52;101006;;;27.30;50.96
62632;BME280;48703;51.248;-0.546;2023-09-08T14:13:53;101000;;;27.34;51.99
62632;BME280;48703;51.248;-0.546;2023-09-08T14:16:55;100996;;;27.38;50.49
62632;BME280;48703;51.248;-0.546;2023-09-08T14:19:57;100997;;;27.47;51.08
62632;BME280;48703;51.248;-0.546;2023-09-08T14:22:59;100995;;;27.57;50.48
62632;BME280;48703;51.248;-0.546;2023-09-08T14:26:01;100992;;;27.67;51.01
62632;BME280;48703;51.248;-0.546;2023-09-08T14:29:03;100992;;;27.72;49.06
62632;BME280;48703;51.248;-0.546;2023-09-08T14:32:05;100987;;;27.72;50.70
62632;BME280;48703;51.248;-0.546;2023-09-08T14:35:08;100984;;;27.67;48.09
62632;BME280;48703;51.248;-0.546;2023-09-08T14:38:10;100978;;;27.61;48.28
62632;BME280;48703;51.248;-0.546;2023-09-08T14:41:12;100975;;;27.59;49.61
62632;BME280;48703;51.248;-0.546;2023-09-08T14:44:14;100972;;;27.57;49.25
62632;BME280;48703;51.248;-0.546;2023-09-08T14:47:16;100972;;;27.58;50.27
62632;BME280;48703;51.248;-0.546;2023-09-08T14:50:18;100974;;;27.63;49.97
62632;BME280;48703;51.248;-0.546;2023-09-08T14:53:20;100975;;;27.68;49.98
62632;BME280;48703;51.248;-0.546;2023-09-08T14:56:22;100975;;;27.72;49.61
62632;BME280;48703;51.248;-0.546;2023-09-08T14:59:24;100973;;;27.77;50.69
62632;BME280;48703;51.248;-0.546;2023-09-08T15:02:26;100969;;;27.79;49.48
62632;BME280;48703;51.248;-0.546;2023-09-08T15:05:28;100963;;;27.82;50.88
62632;BME280;48703;51.248;-0.546;2023-09-08T15:08:30;100958;;;27.83;49.50
62632;BME280;48703;51.248;-0.546;2023-09-08T15:11:32;100951;;;27.84;49.91
62632;BME280;48703;51.248;-0.546;2023-09-08T15:14:34;100949;;;27.86;50.87
62632;BME280;48703;51.248;-0.546;2023-09-08T15:17:36;100951;;;27.89;50.58
62632;BME280;48703;51.248;-0.546;2023-09-08T15:20:38;100953;;;27.94;49.56
62632;BME280;48703;51.248;-0.546;2023-09-08T15:23:40;100950;;;28.00;49.35
62632;BME280;48703;51.248;-0.546;2023-09-08T15:26:42;100948;;;28.10;49.04
62632;BME280;48703;51.248;-0.546;2023-09-08T15:29:45;100951;;;28.18;50.41
62632;BME280;48703;51.248;-0.546;2023-09-08T15:32:47;100951;;;28.20;50.38
62632;BME280;48703;51.248;-0.546;2023-09-08T15:35:49;100950;;;28.19;50.83
62632;BME280;48703;51.248;-0.546;2023-09-08T15:38:51;100951;;;28.17;49.39
62632;BME280;48703;51.248;-0.546;2023-09-08T15:41:53;100952;;;28.17;50.50
62632;BME280;48703;51.248;-0.546;2023-09-08T15:44:55;100949;;;28.15;51.32
62632;BME280;48703;51.248;-0.546;2023-09-08T15:47:57;100949;;;28.13;50.60
62632;BME280;48703;51.248;-0.546;2023-09-08T15:50:59;100949;;;28.10;49.38
62632;BME280;48703;51.248;-0.546;2023-09-08T15:54:01;100948;;;28.08;50.36
62632;BME280;48703;51.248;-0.546;2023-09-08T15:57:03;100948;;;28.06;50.66
62632;BME280;48703;51.248;-0.546;2023-09-08T16:00:05;100948;;;28.02;50.01
62632;BME280;48703;51.248;-0.546;2023-09-08T16:03:07;100946;;;28.02;51.29
62632;BME280;48703;51.248;-0.546;2023-09-08T16:06:09;100946;;;28.01;51.97
62632;BME280;48703;51.248;-0.546;2023-09-08T16:09:11;100947;;;27.98;52.40
62632;BME280;48703;51.248;-0.546;2023-09-08T16:12:13;100951;;;27.97;52.97
62632;BME280;48703;51.248;-0.546;2023-09-08T16:15:15;100953;;;27.95;51.68
62632;BME280;48703;51.248;-0.546;2023-09-08T16:18:17;100954;;;27.94;51.09